Milton, Delaware
Current Conditions -  °F | °C
As of 11:54 PM on Saturday 20 Dec 2014 (Local Time) from KGED Reporting Station
Overcast Overcast  
Wind Chill: 30°   Ceiling: 11000
Heat Index: 30°   Visibility: 10mi
Dew Point: 25°   Wind: 0mph
Humidity: 82%   Direction: NA
Pressure: 30.3"   Gusts: NA
Location:  38.78°N, 75.31°W
Report Text: KGED 210454Z AUTO 00000KT 10SM OVC110 M01/M04 A3030 RMK AO2 SLP262 T10111039 400391056
Loading
Personal Weather Stations






























Interactive Weather Map New forecast layout! Learn more

10-Day Weather Forecast

Advertisements
Track Severe Weather on mobile